createdAt,value
2022-08-03T00:00:26.449Z,8.57
2022-08-03T00:02:53.561Z,8.82
2022-08-03T00:05:20.390Z,10.15
2022-08-03T00:07:49.456Z,9.48
2022-08-03T00:10:17.062Z,8.52
2022-08-03T00:12:43.810Z,8.88
2022-08-03T00:15:15.079Z,8.77
2022-08-03T00:17:52.295Z,8.73
2022-08-03T00:20:21.593Z,9.57
2022-08-03T00:22:48.661Z,8.88
2022-08-03T00:25:15.654Z,9.23
2022-08-03T00:27:42.370Z,10.20
2022-08-03T00:30:09.330Z,9.50
2022-08-03T00:32:35.894Z,8.93
2022-08-03T00:35:08.363Z,17.45
2022-08-03T00:37:41.271Z,8.95
2022-08-03T00:40:19.531Z,8.65
2022-08-03T00:42:47.902Z,8.52
2022-08-03T00:45:14.707Z,9.68
2022-08-03T00:47:42.776Z,8.32
2022-08-03T00:50:09.565Z,10.60
2022-08-03T00:52:36.323Z,9.05
2022-08-03T00:55:04.151Z,9.23
2022-08-03T00:57:32.252Z,8.93
2022-08-03T01:00:00.158Z,8.70
2022-08-03T01:02:28.836Z,8.38
2022-08-03T01:04:56.276Z,9.20
2022-08-03T01:07:42.748Z,8.63
2022-08-03T01:10:38.605Z,11.63
2022-08-03T01:14:00.979Z,9.45
2022-08-03T01:16:35.672Z,10.63
2022-08-03T01:19:33.749Z,8.82
2022-08-03T01:22:09.435Z,9.23
2022-08-03T01:24:48.164Z,9.10
2022-08-03T01:27:23.150Z,9.18
2022-08-03T01:30:08.150Z,11.05
2022-08-03T01:33:15.471Z,9.13
2022-08-03T01:35:46.133Z,8.98
2022-08-03T01:38:18.120Z,9.18
2022-08-03T01:40:46.979Z,10.82
2022-08-03T01:44:26.629Z,9.82
2022-08-03T01:46:07.527Z,9.75
2022-08-03T01:48:37.733Z,9.23
2022-08-03T01:51:05.726Z,8.73
2022-08-03T01:53:34.278Z,8.00
2022-08-03T01:56:04.165Z,8.73
2022-08-03T01:58:32.449Z,8.55
2022-08-03T02:01:01.459Z,8.70
2022-08-03T02:03:36.417Z,9.43
2022-08-03T02:07:02.305Z,7.95
2022-08-03T02:08:55.291Z,9.20
2022-08-03T02:11:21.991Z,8.95
2022-08-03T02:13:51.537Z,9.05
2022-08-03T02:16:19.742Z,9.32
2022-08-03T02:18:48.055Z,9.18
2022-08-03T02:21:55.617Z,9.50
2022-08-03T02:24:05.163Z,9.02
2022-08-03T02:26:32.514Z,10.48
2022-08-03T02:29:03.187Z,9.65
2022-08-03T02:31:34.362Z,9.60
2022-08-03T02:34:06.719Z,9.15
2022-08-03T02:36:39.528Z,9.00
2022-08-03T02:39:09.944Z,9.40
2022-08-03T02:41:46.392Z,8.73
2022-08-03T02:44:17.222Z,8.38
2022-08-03T02:46:46.525Z,7.93
2022-08-03T02:49:41.204Z,8.80
2022-08-03T02:52:04.693Z,8.88
2022-08-03T02:54:33.822Z,8.75
2022-08-03T02:57:02.572Z,8.35
2022-08-03T02:59:32.147Z,8.27
2022-08-03T03:02:02.687Z,9.00
2022-08-03T03:04:32.202Z,9.48
2022-08-03T03:07:04.578Z,8.02
2022-08-03T03:09:41.989Z,8.68
2022-08-03T03:12:12.995Z,9.65
2022-08-03T03:14:40.172Z,8.38
2022-08-03T03:17:09.117Z,8.63
2022-08-03T03:19:36.980Z,8.85
2022-08-03T03:22:06.764Z,7.88
2022-08-03T03:24:35.888Z,7.70
2022-08-03T03:27:03.832Z,8.38
2022-08-03T03:29:30.952Z,7.30
2022-08-03T03:32:08.353Z,8.52
2022-08-03T03:34:36.481Z,7.88
2022-08-03T03:37:03.704Z,9.15
2022-08-03T03:39:30.483Z,9.75
2022-08-03T03:41:57.715Z,8.85
2022-08-03T03:44:30.803Z,10.68
2022-08-03T03:46:58.455Z,8.45
2022-08-03T03:49:26.527Z,8.43
2022-08-03T03:51:54.925Z,8.70
2022-08-03T03:54:21.574Z,8.95
2022-08-03T03:56:48.230Z,8.00
2022-08-03T03:59:14.942Z,9.73
2022-08-03T04:01:41.973Z,7.97
2022-08-03T04:04:27.371Z,7.15
2022-08-03T04:07:12.673Z,7.28
2022-08-03T04:10:07.845Z,7.95
2022-08-03T04:12:49.173Z,8.63
2022-08-03T04:15:20.917Z,9.02
2022-08-03T04:17:50.153Z,8.20
2022-08-03T04:20:21.287Z,8.30
2022-08-03T04:22:52.764Z,7.53
2022-08-03T04:25:22.521Z,8.00
2022-08-03T04:28:27.405Z,8.50
2022-08-03T04:30:47.412Z,7.60
2022-08-03T04:33:16.336Z,8.18
2022-08-03T04:36:01.633Z,11.05
2022-08-03T04:38:32.694Z,8.95
2022-08-03T04:41:00.640Z,8.13
2022-08-03T04:43:28.674Z,10.10
2022-08-03T04:45:57.005Z,8.63
2022-08-03T04:48:24.493Z,8.77
2022-08-03T04:50:51.816Z,11.02
2022-08-03T04:53:19.446Z,9.27
2022-08-03T04:55:46.721Z,8.18
2022-08-03T04:58:13.479Z,8.60
2022-08-03T05:00:40.050Z,7.60
2022-08-03T05:03:23.534Z,8.50
2022-08-03T05:06:01.545Z,10.18
2022-08-03T05:08:28.996Z,8.27
2022-08-03T05:10:59.528Z,7.80
2022-08-03T05:13:26.585Z,7.97
2022-08-03T05:15:53.409Z,8.02
2022-08-03T05:18:24.325Z,9.60
2022-08-03T05:20:50.958Z,8.38
2022-08-03T05:23:18.010Z,7.85
2022-08-03T05:25:49.634Z,8.18
2022-08-03T05:28:16.837Z,7.85
2022-08-03T05:30:43.566Z,7.57
2022-08-03T05:33:10.827Z,10.30
2022-08-03T05:35:57.286Z,9.23
2022-08-03T05:38:33.218Z,7.13
2022-08-03T05:41:20.434Z,8.57
2022-08-03T05:43:50.306Z,7.53
2022-08-03T05:46:16.905Z,7.75
2022-08-03T05:48:43.545Z,8.85
2022-08-03T05:51:11.688Z,8.95
2022-08-03T05:53:39.761Z,6.95
2022-08-03T05:56:13.890Z,6.78
2022-08-03T05:58:46.987Z,9.35
2022-08-03T06:01:15.628Z,7.47
2022-08-03T06:03:42.990Z,9.20
2022-08-03T06:06:09.791Z,6.75
2022-08-03T06:08:36.574Z,11.18
2022-08-03T06:11:03.873Z,8.90
2022-08-03T06:13:30.529Z,11.05
2022-08-03T06:15:57.099Z,9.38
2022-08-03T06:18:24.668Z,7.18
2022-08-03T06:20:52.282Z,7.97
2022-08-03T06:23:19.511Z,8.65
2022-08-03T06:25:47.333Z,9.68
2022-08-03T06:28:42.507Z,5.88
2022-08-03T06:31:02.938Z,7.90
2022-08-03T06:34:30.968Z,6.82
2022-08-03T06:36:17.583Z,16.75
2022-08-03T06:38:44.205Z,6.10
2022-08-03T06:41:10.776Z,5.75
2022-08-03T06:43:37.993Z,5.78
2022-08-03T06:46:05.585Z,7.60
2022-08-03T06:48:32.624Z,5.82
2022-08-03T06:50:59.398Z,4.57
2022-08-03T06:53:26.255Z,5.05
2022-08-03T06:55:54.839Z,6.43
2022-08-03T06:58:22.568Z,4.88
2022-08-03T07:00:49.761Z,5.93
2022-08-03T07:03:17.565Z,7.10
2022-08-03T07:05:47.105Z,6.50
2022-08-03T07:08:14.835Z,8.32
2022-08-03T07:10:41.428Z,7.18
2022-08-03T07:13:08.342Z,5.70
2022-08-03T07:15:54.413Z,6.68
2022-08-03T07:18:24.462Z,8.07
2022-08-03T07:20:56.826Z,4.82
2022-08-03T07:23:24.699Z,5.97
2022-08-03T07:25:51.760Z,5.47
2022-08-03T07:28:19.491Z,5.72
2022-08-03T07:30:46.108Z,4.13
2022-08-03T07:33:12.774Z,7.30
2022-08-03T07:35:39.658Z,4.63
2022-08-03T07:38:06.304Z,5.35
2022-08-03T07:40:33.239Z,5.68
2022-08-03T07:43:00.391Z,5.47
2022-08-03T07:45:27.059Z,4.68
2022-08-03T07:47:54.574Z,4.47
2022-08-03T07:50:22.428Z,4.32
2022-08-03T07:52:50.483Z,6.38
2022-08-03T07:55:19.052Z,6.22
2022-08-03T07:57:45.802Z,5.85
2022-08-03T08:00:18.691Z,5.85
2022-08-03T08:02:45.428Z,5.47
2022-08-03T08:05:12.507Z,5.43
2022-08-03T08:07:39.589Z,6.07
2022-08-03T08:10:09.859Z,10.13
2022-08-03T08:12:37.670Z,5.00
2022-08-03T08:15:05.566Z,4.32
2022-08-03T08:17:40.675Z,3.83
2022-08-03T08:20:07.918Z,4.45
2022-08-03T08:22:35.583Z,5.90
2022-08-03T08:25:05.625Z,6.55
2022-08-03T08:28:30.572Z,5.85
2022-08-03T08:30:21.427Z,4.20
2022-08-03T08:32:48.852Z,4.47
2022-08-03T08:35:16.309Z,5.50
2022-08-03T08:37:43.392Z,4.35
2022-08-03T08:40:21.057Z,3.17
2022-08-03T08:42:57.831Z,3.08
2022-08-03T08:45:24.965Z,3.67
2022-08-03T08:47:54.742Z,4.50
2022-08-03T08:50:27.765Z,4.15
2022-08-03T08:52:55.135Z,4.40
2022-08-03T08:55:23.413Z,2.90
2022-08-03T08:57:55.370Z,3.95
2022-08-03T09:00:22.029Z,3.58
2022-08-03T09:02:51.124Z,5.53
2022-08-03T09:05:19.115Z,3.17
2022-08-03T09:07:47.664Z,4.75
2022-08-03T09:10:22.023Z,5.20
2022-08-03T09:12:51.199Z,4.47
2022-08-03T09:15:19.502Z,4.07
2022-08-03T09:17:50.683Z,4.15
2022-08-03T09:20:19.118Z,5.45
2022-08-03T09:23:44.678Z,2.58
2022-08-03T09:26:01.599Z,4.80
2022-08-03T09:29:01.287Z,3.83
2022-08-03T09:31:34.443Z,4.38
2022-08-03T09:34:03.762Z,4.28
2022-08-03T09:36:39.550Z,3.75
2022-08-03T09:39:17.894Z,6.50
2022-08-03T09:42:04.579Z,3.90
2022-08-03T09:44:42.129Z,7.05
2022-08-03T09:47:14.313Z,2.65
2022-08-03T09:49:42.795Z,3.70
2022-08-03T09:52:49.426Z,3.83
2022-08-03T09:56:34.126Z,2.88
2022-08-03T09:58:11.711Z,3.83
2022-08-03T10:01:05.227Z,4.80
2022-08-03T10:04:03.244Z,4.63
2022-08-03T10:06:25.486Z,3.42
2022-08-03T10:09:13.743Z,5.30
2022-08-03T10:11:42.592Z,3.33
2022-08-03T10:14:18.544Z,4.22
2022-08-03T10:16:46.852Z,2.85
2022-08-03T10:19:15.082Z,4.47
2022-08-03T10:21:58.553Z,5.68
2022-08-03T10:24:28.207Z,4.55
2022-08-03T10:27:15.466Z,5.95
2022-08-03T10:29:50.427Z,5.20
2022-08-03T10:32:30.396Z,4.40
2022-08-03T10:35:19.095Z,2.85
2022-08-03T10:37:58.826Z,3.50
2022-08-03T10:43:28.610Z,4.07
2022-08-03T10:45:56.213Z,2.50
2022-08-03T10:48:23.155Z,5.15
2022-08-03T10:50:50.768Z,3.00
2022-08-03T10:53:34.553Z,3.55
2022-08-03T10:56:48.028Z,2.95
2022-08-03T10:59:27.467Z,3.97
2022-08-03T11:02:00.092Z,3.65
2022-08-03T11:04:29.188Z,4.68
2022-08-03T11:07:24.542Z,6.00
2022-08-03T11:09:53.430Z,5.10
2022-08-03T11:12:35.350Z,5.97
2022-08-03T11:15:05.809Z,2.15
2022-08-03T11:17:46.117Z,2.97
2022-08-03T11:20:44.995Z,4.53
2022-08-03T11:23:12.056Z,5.53
2022-08-03T11:26:10.845Z,2.92
2022-08-03T11:28:40.795Z,4.28
2022-08-03T11:31:47.960Z,5.55
2022-08-03T11:34:11.304Z,4.35
2022-08-03T11:37:15.641Z,5.28
2022-08-03T11:39:45.369Z,4.47
2022-08-03T11:42:24.742Z,2.58
2022-08-03T11:44:53.485Z,3.97
2022-08-03T11:47:26.933Z,4.50
2022-08-03T11:50:00.051Z,2.78
2022-08-03T11:52:28.976Z,4.07
2022-08-03T11:54:56.981Z,3.85
2022-08-03T11:59:10.748Z,4.20
2022-08-03T12:00:30.423Z,2.67
2022-08-03T12:03:07.536Z,3.63
2022-08-03T12:05:41.631Z,2.65
2022-08-03T12:08:28.137Z,5.50
2022-08-03T12:10:56.545Z,4.65
2022-08-03T12:14:36.708Z,4.53
2022-08-03T12:16:10.948Z,5.38
2022-08-03T12:18:37.770Z,4.85
2022-08-03T12:21:10.181Z,2.30
2022-08-03T12:23:38.243Z,3.42
2022-08-03T12:26:09.960Z,3.58
2022-08-03T12:28:38.346Z,4.72
2022-08-03T12:31:07.783Z,3.92
2022-08-03T12:33:55.820Z,3.88
2022-08-03T12:36:22.913Z,4.60
2022-08-03T12:39:01.696Z,4.15
2022-08-03T12:41:39.419Z,3.90
2022-08-03T12:44:07.892Z,2.00
2022-08-03T12:46:43.947Z,3.20
2022-08-03T12:49:18.046Z,3.10
2022-08-03T12:51:44.590Z,3.67
2022-08-03T12:54:24.697Z,3.50
2022-08-03T12:57:02.069Z,2.97
2022-08-03T12:59:32.331Z,7.80
2022-08-03T13:02:09.194Z,3.63
2022-08-03T13:04:36.967Z,3.30
2022-08-03T13:07:14.198Z,4.38
2022-08-03T13:09:49.645Z,3.53
2022-08-03T13:12:21.401Z,2.72
2022-08-03T13:14:50.478Z,4.93
2022-08-03T13:17:17.999Z,4.30
2022-08-03T13:19:46.351Z,5.57
2022-08-03T13:22:24.418Z,3.08
2022-08-03T13:24:53.058Z,3.53
2022-08-03T13:28:02.291Z,4.97
2022-08-03T13:30:07.752Z,5.32
2022-08-03T13:32:35.146Z,3.95
2022-08-03T13:35:02.894Z,3.15
2022-08-03T13:37:32.192Z,2.88
2022-08-03T13:40:04.473Z,3.38
2022-08-03T13:42:32.724Z,3.53
2022-08-03T13:45:00.632Z,3.55
2022-08-03T13:47:28.187Z,3.42
2022-08-03T13:50:00.994Z,4.05
2022-08-03T13:52:36.092Z,4.78
2022-08-03T13:55:05.766Z,3.22
2022-08-03T13:58:04.319Z,2.97
2022-08-03T14:00:27.383Z,3.53
2022-08-03T14:05:44.416Z,8.65
2022-08-03T14:08:12.014Z,4.75
2022-08-03T14:10:41.704Z,3.80
2022-08-03T14:13:11.725Z,4.70
2022-08-03T14:15:38.862Z,3.17
2022-08-03T14:18:15.236Z,3.25
2022-08-03T14:20:47.849Z,2.95
2022-08-03T14:23:17.430Z,4.90
2022-08-03T14:25:52.526Z,3.22
2022-08-03T14:28:22.441Z,3.58
2022-08-03T14:30:50.002Z,4.43
2022-08-03T14:33:16.821Z,5.32
2022-08-03T14:35:43.526Z,3.83
2022-08-03T14:38:10.237Z,2.85
2022-08-03T14:40:36.929Z,3.95
2022-08-03T14:43:05.056Z,2.20
2022-08-03T14:45:31.862Z,5.60
2022-08-03T14:50:32.075Z,2.80
2022-08-03T14:50:51.047Z,3.45
2022-08-03T14:53:19.222Z,4.10
2022-08-03T14:55:50.408Z,5.65
2022-08-03T14:58:27.680Z,5.72
2022-08-03T15:00:55.535Z,3.53
2022-08-03T15:03:24.626Z,3.72
2022-08-03T15:05:54.087Z,5.10
2022-08-03T15:08:22.387Z,2.15
2022-08-03T15:10:50.392Z,2.88
2022-08-03T15:13:19.370Z,3.10
2022-08-03T15:15:46.147Z,3.80
2022-08-03T15:18:12.806Z,4.13
2022-08-03T15:20:44.998Z,4.72
2022-08-03T15:23:14.311Z,4.60
2022-08-03T15:26:31.998Z,3.05
2022-08-03T15:28:29.181Z,4.00
2022-08-03T15:30:55.878Z,2.65
2022-08-03T15:33:22.510Z,3.25
2022-08-03T15:35:49.851Z,3.33
2022-08-03T15:38:16.587Z,6.30
2022-08-03T15:40:43.361Z,5.15
2022-08-03T15:43:10.130Z,2.80
2022-08-03T15:45:37.210Z,3.05
2022-08-03T15:48:05.407Z,3.17
2022-08-03T15:50:32.052Z,4.95
2022-08-03T15:52:58.845Z,3.40
2022-08-03T15:55:25.678Z,2.60
2022-08-03T15:59:04.857Z,3.38
2022-08-03T16:00:39.848Z,2.42
2022-08-03T16:03:06.448Z,2.20
2022-08-03T16:05:33.313Z,2.58
2022-08-03T16:08:03.578Z,6.30
2022-08-03T16:10:32.669Z,3.83
2022-08-03T16:13:00.157Z,5.00
2022-08-03T16:15:27.495Z,4.90
2022-08-03T16:17:54.288Z,4.53
2022-08-03T16:20:33.884Z,3.60
2022-08-03T16:23:10.541Z,4.95
2022-08-03T16:25:40.406Z,3.92
2022-08-03T16:28:13.472Z,3.30
2022-08-03T16:30:42.674Z,3.33
2022-08-03T16:33:10.696Z,3.72
2022-08-03T16:35:37.449Z,3.05
2022-08-03T16:38:09.760Z,4.07
2022-08-03T16:40:38.035Z,2.83
2022-08-03T16:43:18.489Z,5.88
2022-08-03T16:45:49.608Z,4.70
2022-08-03T16:48:16.977Z,5.43
2022-08-03T16:50:44.487Z,2.95
2022-08-03T16:53:16.418Z,2.10
2022-08-03T16:55:53.851Z,3.15
2022-08-03T16:58:24.312Z,3.33
2022-08-03T17:01:01.114Z,6.43
2022-08-03T17:03:42.713Z,2.40
2022-08-03T17:06:25.687Z,2.53
2022-08-03T17:09:00.675Z,4.20
2022-08-03T17:11:30.022Z,4.28
2022-08-03T17:14:00.522Z,2.90
2022-08-03T17:16:27.362Z,5.25
2022-08-03T17:19:04.143Z,3.92
2022-08-03T17:21:32.978Z,4.57
2022-08-03T17:24:19.846Z,7.90
2022-08-03T17:26:50.021Z,8.38
2022-08-03T17:29:25.004Z,3.35
2022-08-03T17:31:52.878Z,2.70
2022-08-03T17:34:20.747Z,3.58
2022-08-03T17:37:27.299Z,3.03
2022-08-03T17:39:58.080Z,3.67
2022-08-03T17:42:30.324Z,3.55
2022-08-03T17:44:58.711Z,3.80
2022-08-03T17:47:41.973Z,4.22
2022-08-03T17:50:24.649Z,4.30
2022-08-03T17:53:23.566Z,2.42
2022-08-03T17:56:40.697Z,3.75
2022-08-03T17:59:15.401Z,3.72
2022-08-03T18:02:28.006Z,3.03
2022-08-03T18:05:16.319Z,2.92
2022-08-03T18:07:50.854Z,3.50
2022-08-03T18:10:34.285Z,4.13
2022-08-03T18:13:13.972Z,3.13
2022-08-03T18:15:56.109Z,3.75
2022-08-03T18:21:16.723Z,4.05
2022-08-03T18:23:45.738Z,3.20
2022-08-03T18:28:44.565Z,3.40
2022-08-03T18:31:53.424Z,4.40
2022-08-03T18:34:16.858Z,2.67
2022-08-03T18:36:48.179Z,4.03
2022-08-03T18:39:14.951Z,4.97
2022-08-03T18:41:46.290Z,4.45
2022-08-03T18:44:53.123Z,5.25
2022-08-03T18:47:23.051Z,5.65
2022-08-03T18:50:01.771Z,5.25
2022-08-03T18:52:45.691Z,3.03
2022-08-03T18:55:20.033Z,4.18
2022-08-03T18:58:17.773Z,4.85
2022-08-03T19:04:04.316Z,4.03
2022-08-03T19:06:32.386Z,3.17
2022-08-03T19:09:09.463Z,5.07
2022-08-03T19:14:34.515Z,10.60
2022-08-03T19:17:08.610Z,4.28
2022-08-03T19:19:44.351Z,7.13
2022-08-03T19:22:16.222Z,3.80
2022-08-03T19:24:45.493Z,6.75
2022-08-03T19:27:16.024Z,3.67
2022-08-03T19:29:57.898Z,3.60
2022-08-03T19:32:32.282Z,5.57
2022-08-03T19:35:01.503Z,5.20
2022-08-03T19:37:38.031Z,4.15
2022-08-03T19:40:10.758Z,5.05
2022-08-03T19:42:44.715Z,6.30
2022-08-03T19:45:17.030Z,6.68
2022-08-03T19:47:52.995Z,8.70
2022-08-03T19:50:20.574Z,4.72
2022-08-03T19:52:49.743Z,3.88
2022-08-03T19:55:17.690Z,4.68
2022-08-03T19:57:49.186Z,6.82
2022-08-03T20:00:19.403Z,6.25
2022-08-03T20:02:46.477Z,3.88
2022-08-03T20:05:15.408Z,3.83
2022-08-03T20:07:48.303Z,3.65
2022-08-03T20:10:17.648Z,4.00
2022-08-03T20:12:45.907Z,5.05
2022-08-03T20:15:12.942Z,3.72
2022-08-03T20:17:56.267Z,4.93
2022-08-03T20:20:37.166Z,4.07
2022-08-03T20:23:13.085Z,5.10
2022-08-03T20:25:56.973Z,7.15
2022-08-03T20:28:50.224Z,4.15
2022-08-03T20:31:36.143Z,4.50
2022-08-03T20:34:03.465Z,4.50
2022-08-03T20:36:32.293Z,3.83
2022-08-03T20:41:45.921Z,5.70
2022-08-03T20:44:12.560Z,6.63
2022-08-03T20:46:53.512Z,6.45
2022-08-03T20:49:25.950Z,4.47
2022-08-03T20:51:53.748Z,3.80
2022-08-03T20:54:30.941Z,4.32
2022-08-03T20:57:00.700Z,6.40
2022-08-03T20:59:47.398Z,4.22
2022-08-03T21:02:29.796Z,4.05
2022-08-03T21:05:03.342Z,6.10
2022-08-03T21:08:05.813Z,6.00
2022-08-03T21:10:28.568Z,6.30
2022-08-03T21:13:01.459Z,5.75
2022-08-03T21:13:07.250Z,5.35
2022-08-03T21:13:09.361Z,4.70
2022-08-03T21:16:07.106Z,4.45
2022-08-03T21:18:50.930Z,7.43
2022-08-03T21:21:22.313Z,7.10
2022-08-03T21:23:52.509Z,5.68
2022-08-03T21:26:21.069Z,5.20
2022-08-03T21:28:52.336Z,3.22
2022-08-03T21:31:25.305Z,4.82
2022-08-03T21:33:58.432Z,6.65
2022-08-03T21:36:30.345Z,5.30
2022-08-03T21:38:58.654Z,5.20
2022-08-03T21:41:27.821Z,7.38
2022-08-03T21:43:54.867Z,3.78
2022-08-03T21:46:25.381Z,3.88
2022-08-03T21:50:04.836Z,3.42
2022-08-03T21:51:49.543Z,6.03
2022-08-03T21:54:17.596Z,6.65
2022-08-03T21:56:47.625Z,5.75
2022-08-03T21:59:19.828Z,7.50
2022-08-03T22:01:49.361Z,5.68
2022-08-03T22:04:50.241Z,3.78
2022-08-03T22:07:08.041Z,4.72
2022-08-03T22:09:35.987Z,8.15
2022-08-03T22:12:03.000Z,6.38
2022-08-03T22:14:32.595Z,5.75
2022-08-03T22:17:00.616Z,4.75
2022-08-03T22:19:30.089Z,6.95
2022-08-03T22:21:59.315Z,4.28
2022-08-03T22:24:28.827Z,5.05
2022-08-03T22:27:14.434Z,6.72
2022-08-03T22:29:42.645Z,5.18
2022-08-03T22:32:10.456Z,9.77
2022-08-03T22:34:37.494Z,3.92
2022-08-03T22:37:04.878Z,5.13
2022-08-03T22:39:32.312Z,5.93
2022-08-03T22:42:00.094Z,4.22
2022-08-03T22:44:28.248Z,5.43
2022-08-03T22:46:56.557Z,4.80
2022-08-03T22:49:24.116Z,4.30
2022-08-03T22:51:52.029Z,4.65
2022-08-03T22:54:19.176Z,4.72
2022-08-03T22:56:46.990Z,3.92
2022-08-03T22:59:39.077Z,4.88
2022-08-03T23:02:20.086Z,7.50
2022-08-03T23:04:53.277Z,4.70
2022-08-03T23:07:27.258Z,5.80
2022-08-03T23:09:56.720Z,5.03
2022-08-03T23:12:23.780Z,5.22
2022-08-03T23:14:55.953Z,4.95
2022-08-03T23:17:24.179Z,5.03
2022-08-03T23:19:53.674Z,6.95
2022-08-03T23:22:30.129Z,4.30
2022-08-03T23:24:59.100Z,7.57
2022-08-03T23:27:27.596Z,7.18
2022-08-03T23:29:57.378Z,8.25
2022-08-03T23:32:28.688Z,7.72
2022-08-03T23:35:19.119Z,6.38
2022-08-03T23:38:04.333Z,7.43
2022-08-03T23:40:33.994Z,6.53
2022-08-03T23:43:02.230Z,6.65
2022-08-03T23:45:31.230Z,6.53
2022-08-03T23:47:57.900Z,5.57
2022-08-03T23:50:25.080Z,8.23
2022-08-03T23:53:04.762Z,5.70
2022-08-03T23:55:45.715Z,7.82
2022-08-03T23:58:34.530Z,6.63
